NCAR-RAP Real-Time Weather Data

Output produced by METARs form (08 May 2021  01:13 UTC)
found at http://weather.rap.ucar.edu/surface/
 
KGEY 080053Z AUTO 34007KT 10SM FEW100 FEW120 26/M01 A2956 RMK AO2 SLP984 T02611006
KGEY 072353Z AUTO 17013G25KT 10SM FEW110 27/M02 A2957 RMK AO2 PK WND 20033/2322 SLP986 T02721017 10311 20228 55022
KGEY 072253Z AUTO 00000KT 10SM CLR 29/M04 A2956 RMK AO2 PK WND 18029/2218 SLP979 T02941039
KGEY 072153Z AUTO 19012G25KT 10SM CLR 30/M04 A2959 RMK AO2 PK WND 16026/2131 SLP989 T03001044
KGEY 072053Z AUTO 17014G21KT 10SM FEW002 30/M01 A2964 RMK AO2 PK WND 17028/2035 SLP005 T03001006 56042
KGEY 071953Z AUTO 16010G17KT 10SM CLR 28/M01 A2968 RMK AO2 SLP021 T02781011
KGEY 071853Z AUTO 12006KT 10SM CLR 26/M01 A2973 RMK AO2 SLP036 T02611006
KGEY 071753Z AUTO 16005KT 10SM CLR 23/00 A2978 RMK AO2 SLP055 T02280000 10228 20061 56032
KGEY 071653Z AUTO 23008KT 10SM CLR 20/01 A2981 RMK AO2 SLP070 T02000011
KGEY 071553Z AUTO 20003KT 10SM CLR 16/02 A2984 RMK AO2 SLP084 T01610017
KGEY 071453Z AUTO 13004KT 10SM CLR 12/01 A2988 RMK AO2 SLP097 T01220006 58010
KGEY 071353Z AUTO 00000KT 10SM CLR 08/01 A2991 RMK AO2 SLP110 T00830006 $
KGEY 071253Z AUTO 02004KT 10SM CLR 08/00 A2991 RMK AO2 SLP107 T00780000
KGEY 071153Z AUTO 00000KT 10SM CLR 06/M01 A2992 RMK AO2 SLP112 7//// T00611006 10139 20056 56013